createdAt,value
2022-10-10T00:00:53.930Z,254.00
2022-10-10T00:01:53.943Z,262.00
2022-10-10T00:02:53.937Z,258.00
2022-10-10T00:03:53.896Z,259.00
2022-10-10T00:04:53.884Z,262.00
2022-10-10T00:05:53.868Z,263.00
2022-10-10T00:06:53.854Z,266.00
2022-10-10T00:07:53.876Z,266.00
2022-10-10T00:08:53.831Z,263.00
2022-10-10T00:09:53.807Z,262.00
2022-10-10T00:10:54.965Z,262.00
2022-10-10T00:11:53.805Z,262.00
2022-10-10T00:12:53.872Z,264.00
2022-10-10T00:13:53.758Z,266.00
2022-10-10T00:14:53.750Z,259.00
2022-10-10T00:15:53.747Z,256.00
2022-10-10T00:16:53.744Z,252.00
2022-10-10T00:17:53.729Z,258.00
2022-10-10T00:18:53.715Z,265.00
2022-10-10T00:19:53.686Z,261.00
2022-10-10T00:20:53.689Z,260.00
2022-10-10T00:21:53.670Z,268.00
2022-10-10T00:22:54.024Z,276.00
2022-10-10T00:23:53.665Z,286.00
2022-10-10T00:24:53.634Z,285.00
2022-10-10T00:25:53.596Z,284.00
2022-10-10T00:26:53.619Z,302.00
2022-10-10T00:27:53.577Z,288.00
2022-10-10T00:28:53.565Z,294.00
2022-10-10T00:29:53.561Z,304.00
2022-10-10T00:30:53.560Z,311.00
2022-10-10T00:31:53.517Z,301.00
2022-10-10T00:32:53.547Z,295.00
2022-10-10T00:33:53.502Z,269.00
2022-10-10T00:34:53.503Z,263.00
2022-10-10T00:35:53.479Z,251.00
2022-10-10T00:36:53.460Z,249.00
2022-10-10T00:37:53.457Z,251.00
2022-10-10T00:38:53.459Z,256.00
2022-10-10T00:39:53.437Z,263.00
2022-10-10T00:40:53.412Z,280.00
2022-10-10T00:41:53.421Z,321.00
2022-10-10T00:42:53.837Z,284.00
2022-10-10T00:43:53.384Z,282.00
2022-10-10T00:44:53.353Z,283.00
2022-10-10T00:45:53.334Z,292.00
2022-10-10T00:46:53.359Z,289.00
2022-10-10T00:47:53.331Z,295.00
2022-10-10T00:48:53.303Z,293.00
2022-10-10T00:49:53.303Z,279.00
2022-10-10T00:50:53.310Z,258.00
2022-10-10T00:51:53.296Z,259.00
2022-10-10T00:52:53.527Z,262.00
2022-10-10T00:53:53.235Z,263.00
2022-10-10T00:54:53.248Z,258.00
2022-10-10T00:55:53.232Z,265.00
2022-10-10T00:56:53.196Z,256.00
2022-10-10T00:57:53.184Z,255.00
2022-10-10T00:58:53.173Z,248.00
2022-10-10T00:59:53.152Z,259.00
2022-10-10T01:00:53.247Z,263.00
2022-10-10T01:01:53.126Z,263.00
2022-10-10T01:02:53.469Z,267.00
2022-10-10T01:03:53.098Z,272.00
2022-10-10T01:04:53.105Z,278.00
2022-10-10T01:05:53.090Z,284.00
2022-10-10T01:06:53.065Z,282.00
2022-10-10T01:07:53.065Z,304.00
2022-10-10T01:08:53.061Z,296.00
2022-10-10T01:09:53.165Z,309.00
2022-10-10T01:10:53.018Z,301.00
2022-10-10T01:11:53.028Z,304.00
2022-10-10T01:12:53.282Z,313.00
2022-10-10T01:13:52.976Z,337.00
2022-10-10T01:14:52.979Z,326.00
2022-10-10T01:15:52.962Z,323.00
2022-10-10T01:16:52.949Z,317.00
2022-10-10T01:17:52.928Z,317.00
2022-10-10T01:18:52.909Z,308.00
2022-10-10T01:19:52.939Z,302.00
2022-10-10T01:20:52.904Z,291.00
2022-10-10T01:21:52.879Z,303.00
2022-10-10T01:22:53.165Z,308.00
2022-10-10T01:23:52.835Z,315.00
2022-10-10T01:24:52.846Z,314.00
2022-10-10T01:25:52.827Z,307.00
2022-10-10T01:26:52.819Z,302.00
2022-10-10T01:27:52.794Z,313.00
2022-10-10T01:28:52.778Z,300.00
2022-10-10T01:29:52.781Z,292.00
2022-10-10T01:30:52.755Z,287.00
2022-10-10T01:31:52.751Z,278.00
2022-10-10T01:32:53.288Z,271.00
2022-10-10T01:33:52.723Z,263.00
2022-10-10T01:34:52.732Z,260.00
2022-10-10T01:35:52.696Z,243.00
2022-10-10T01:36:52.697Z,237.00
2022-10-10T01:37:52.670Z,243.00
2022-10-10T01:38:52.647Z,250.00
2022-10-10T01:39:52.665Z,248.00
2022-10-10T01:40:52.621Z,249.00
2022-10-10T01:41:52.603Z,256.00
2022-10-10T01:42:52.903Z,264.00
2022-10-10T01:43:52.572Z,283.00
2022-10-10T01:44:52.601Z,308.00
2022-10-10T01:45:52.568Z,291.00
2022-10-10T01:46:52.540Z,286.00
2022-10-10T01:47:52.524Z,285.00
2022-10-10T01:48:52.537Z,293.00
2022-10-10T01:49:52.497Z,296.00
2022-10-10T01:50:52.503Z,296.00
2022-10-10T01:51:52.470Z,299.00
2022-10-10T01:52:52.821Z,301.00
2022-10-10T01:53:52.461Z,284.00
2022-10-10T01:54:52.459Z,285.00
2022-10-10T01:55:52.441Z,291.00
2022-10-10T01:56:52.454Z,292.00
2022-10-10T01:57:52.391Z,300.00
2022-10-10T01:58:52.384Z,313.00
2022-10-10T01:59:52.367Z,315.00
2022-10-10T02:00:52.436Z,314.00
2022-10-10T02:01:52.341Z,311.00
2022-10-10T02:02:52.758Z,305.00
2022-10-10T02:03:52.338Z,309.00
2022-10-10T02:04:52.324Z,304.00
2022-10-10T02:05:52.314Z,318.00
2022-10-10T02:06:52.298Z,333.00
2022-10-10T02:07:52.261Z,366.00
2022-10-10T02:08:52.293Z,407.00
2022-10-10T02:09:52.260Z,373.00
2022-10-10T02:10:52.250Z,371.00
2022-10-10T02:11:52.253Z,382.00
2022-10-10T02:12:52.697Z,405.00
2022-10-10T02:13:52.193Z,378.00
2022-10-10T02:14:52.190Z,375.00
2022-10-10T02:15:52.159Z,403.00
2022-10-10T02:16:52.150Z,367.00
2022-10-10T02:17:52.146Z,376.00
2022-10-10T02:18:52.144Z,375.00
2022-10-10T02:19:52.146Z,364.00
2022-10-10T02:20:52.104Z,349.00
2022-10-10T02:21:52.095Z,356.00
2022-10-10T02:22:52.324Z,362.00
2022-10-10T02:23:52.060Z,354.00
2022-10-10T02:24:52.067Z,324.00
2022-10-10T02:25:52.047Z,326.00
2022-10-10T02:26:52.034Z,326.00
2022-10-10T02:27:52.016Z,322.00
2022-10-10T02:28:52.020Z,294.00
2022-10-10T02:29:51.989Z,320.00
2022-10-10T02:30:51.986Z,329.00
2022-10-10T02:31:51.947Z,321.00
2022-10-10T02:32:52.422Z,299.00
2022-10-10T02:33:51.942Z,310.00
2022-10-10T02:34:51.952Z,323.00
2022-10-10T02:35:51.920Z,336.00
2022-10-10T02:36:51.908Z,333.00
2022-10-10T02:37:51.874Z,310.00
2022-10-10T02:38:51.863Z,336.00
2022-10-10T02:39:51.864Z,313.00
2022-10-10T02:40:51.846Z,332.00
2022-10-10T02:41:51.840Z,368.00
2022-10-10T02:42:52.089Z,321.00
2022-10-10T02:43:51.805Z,309.00
2022-10-10T02:44:51.807Z,310.00
2022-10-10T02:45:51.764Z,312.00
2022-10-10T02:46:51.791Z,323.00
2022-10-10T02:47:51.753Z,316.00
2022-10-10T02:48:51.727Z,313.00
2022-10-10T02:49:51.727Z,307.00
2022-10-10T02:50:51.738Z,307.00
2022-10-10T02:51:51.702Z,298.00
2022-10-10T02:52:52.160Z,298.00
2022-10-10T02:53:51.677Z,309.00
2022-10-10T02:54:51.659Z,306.00
2022-10-10T02:55:51.634Z,303.00
2022-10-10T02:56:51.652Z,293.00
2022-10-10T02:57:51.609Z,298.00
2022-10-10T02:58:51.601Z,307.00
2022-10-10T02:59:51.629Z,317.00
2022-10-10T03:00:51.615Z,330.00
2022-10-10T03:01:51.563Z,311.00
2022-10-10T03:02:51.872Z,304.00
2022-10-10T03:03:51.532Z,301.00
2022-10-10T03:04:51.538Z,309.00
2022-10-10T03:05:51.503Z,309.00
2022-10-10T03:06:51.525Z,303.00
2022-10-10T03:07:51.518Z,305.00
2022-10-10T03:08:51.466Z,304.00
2022-10-10T03:09:51.451Z,311.00
2022-10-10T03:10:51.447Z,302.00
2022-10-10T03:11:51.429Z,305.00
2022-10-10T03:12:51.853Z,305.00
2022-10-10T03:13:51.411Z,301.00
2022-10-10T03:14:51.512Z,304.00
2022-10-10T03:15:51.370Z,294.00
2022-10-10T03:16:51.392Z,287.00
2022-10-10T03:17:51.384Z,298.00
2022-10-10T03:18:51.355Z,306.00
2022-10-10T03:19:51.346Z,318.00
2022-10-10T03:20:51.329Z,323.00
2022-10-10T03:21:51.310Z,308.00
2022-10-10T03:22:51.674Z,313.00
2022-10-10T03:23:51.283Z,318.00
2022-10-10T03:24:51.277Z,321.00
2022-10-10T03:25:51.240Z,323.00
2022-10-10T03:26:51.253Z,305.00
2022-10-10T03:27:51.240Z,301.00
2022-10-10T03:28:51.223Z,308.00
2022-10-10T03:29:51.222Z,309.00
2022-10-10T03:30:51.197Z,292.00
2022-10-10T03:31:51.193Z,291.00
2022-10-10T03:32:51.431Z,281.00
2022-10-10T03:33:51.137Z,274.00
2022-10-10T03:34:51.141Z,279.00
2022-10-10T03:35:51.109Z,279.00
2022-10-10T03:36:51.105Z,284.00
2022-10-10T03:37:51.092Z,311.00
2022-10-10T03:38:51.071Z,320.00
2022-10-10T03:39:51.073Z,326.00
2022-10-10T03:40:51.065Z,325.00
2022-10-10T03:41:51.056Z,315.00
2022-10-10T03:42:51.310Z,296.00
2022-10-10T03:43:51.029Z,298.00
2022-10-10T03:44:51.069Z,291.00
2022-10-10T03:45:50.991Z,306.00
2022-10-10T03:46:50.984Z,318.00
2022-10-10T03:47:51.003Z,320.00
2022-10-10T03:48:50.961Z,315.00
2022-10-10T03:49:50.962Z,327.00
2022-10-10T03:50:50.916Z,334.00
2022-10-10T03:51:50.927Z,323.00
2022-10-10T03:52:51.166Z,326.00
2022-10-10T03:53:50.893Z,315.00
2022-10-10T03:54:50.875Z,314.00
2022-10-10T03:55:50.862Z,324.00
2022-10-10T03:56:50.839Z,317.00
2022-10-10T03:57:50.862Z,330.00
2022-10-10T03:58:50.815Z,324.00
2022-10-10T03:59:50.814Z,306.00
2022-10-10T04:00:50.795Z,319.00
2022-10-10T04:01:50.796Z,327.00
2022-10-10T04:02:51.084Z,338.00
2022-10-10T04:03:52.257Z,329.00
2022-10-10T04:04:50.729Z,345.00
2022-10-10T04:05:50.750Z,335.00
2022-10-10T04:06:50.724Z,331.00
2022-10-10T04:07:50.721Z,317.00
2022-10-10T04:08:50.705Z,312.00
2022-10-10T04:09:50.681Z,329.00
2022-10-10T04:10:50.655Z,295.00
2022-10-10T04:11:50.654Z,308.00
2022-10-10T04:12:50.835Z,313.00
2022-10-10T04:13:50.640Z,296.00
2022-10-10T04:14:50.623Z,309.00
2022-10-10T04:15:50.608Z,320.00
2022-10-10T04:16:50.594Z,324.00
2022-10-10T04:17:50.568Z,312.00
2022-10-10T04:18:50.570Z,323.00
2022-10-10T04:19:50.547Z,316.00
2022-10-10T04:20:50.545Z,278.00
2022-10-10T04:21:50.540Z,308.00
2022-10-10T04:22:50.733Z,304.00
2022-10-10T04:23:50.488Z,322.00
2022-10-10T04:24:50.496Z,326.00
2022-10-10T04:25:50.482Z,313.00
2022-10-10T04:26:50.446Z,311.00
2022-10-10T04:27:50.453Z,307.00
2022-10-10T04:28:50.441Z,312.00
2022-10-10T04:29:50.436Z,314.00
2022-10-10T04:30:50.404Z,310.00
2022-10-10T04:31:50.425Z,307.00
2022-10-10T04:32:50.642Z,311.00
2022-10-10T04:33:50.382Z,307.00
2022-10-10T04:34:50.344Z,312.00
2022-10-10T04:35:50.376Z,312.00
2022-10-10T04:36:50.315Z,306.00
2022-10-10T04:37:50.340Z,291.00
2022-10-10T04:38:50.303Z,260.00
2022-10-10T04:39:50.323Z,260.00
2022-10-10T04:40:50.285Z,256.00
2022-10-10T04:41:50.278Z,256.00
2022-10-10T04:42:50.506Z,264.00
2022-10-10T04:43:50.246Z,279.00
2022-10-10T04:44:50.238Z,291.00
2022-10-10T04:45:50.223Z,286.00
2022-10-10T04:46:50.186Z,293.00
2022-10-10T04:47:50.211Z,297.00
2022-10-10T04:48:50.160Z,294.00
2022-10-10T04:49:50.156Z,270.00
2022-10-10T04:50:50.156Z,274.00
2022-10-10T04:51:50.135Z,269.00
2022-10-10T04:52:50.357Z,268.00
2022-10-10T04:53:50.672Z,269.00
2022-10-10T04:54:50.082Z,272.00
2022-10-10T04:55:50.079Z,287.00
2022-10-10T04:56:50.069Z,289.00
2022-10-10T04:57:50.066Z,297.00
2022-10-10T04:58:50.047Z,303.00
2022-10-10T04:59:50.045Z,297.00
2022-10-10T05:00:50.018Z,322.00
2022-10-10T05:01:50.024Z,315.00
2022-10-10T05:02:50.317Z,306.00
2022-10-10T05:03:49.988Z,298.00
2022-10-10T05:04:49.970Z,300.00
2022-10-10T05:05:49.981Z,317.00
2022-10-10T05:06:49.934Z,356.00
2022-10-10T05:07:55.156Z,347.00
2022-10-10T05:08:49.941Z,338.00
2022-10-10T05:09:49.890Z,340.00
2022-10-10T05:10:49.901Z,327.00
2022-10-10T05:11:49.867Z,315.00
2022-10-10T05:12:50.147Z,298.00
2022-10-10T05:13:49.841Z,317.00
2022-10-10T05:14:49.831Z,308.00
2022-10-10T05:15:49.835Z,311.00
2022-10-10T05:16:49.814Z,311.00
2022-10-10T05:17:49.808Z,308.00
2022-10-10T05:18:49.788Z,304.00
2022-10-10T05:19:49.766Z,310.00
2022-10-10T05:20:49.760Z,306.00
2022-10-10T05:21:49.753Z,303.00
2022-10-10T05:22:50.082Z,298.00
2022-10-10T05:23:49.711Z,287.00
2022-10-10T05:24:49.708Z,286.00
2022-10-10T05:25:49.716Z,264.00
2022-10-10T05:26:49.665Z,264.00
2022-10-10T05:27:49.674Z,267.00
2022-10-10T05:28:49.668Z,267.00
2022-10-10T05:29:49.632Z,270.00
2022-10-10T05:30:49.612Z,265.00
2022-10-10T05:31:49.625Z,271.00
2022-10-10T05:32:49.954Z,256.00
2022-10-10T05:33:49.609Z,253.00
2022-10-10T05:34:49.560Z,255.00
2022-10-10T05:35:49.576Z,263.00
2022-10-10T05:36:49.550Z,272.00
2022-10-10T05:37:49.533Z,276.00
2022-10-10T05:38:49.529Z,271.00
2022-10-10T05:39:54.376Z,265.00
2022-10-10T05:40:49.501Z,265.00
2022-10-10T05:41:49.494Z,277.00
2022-10-10T05:42:49.780Z,281.00
2022-10-10T05:43:49.458Z,296.00
2022-10-10T05:44:49.456Z,292.00
2022-10-10T05:45:49.419Z,293.00
2022-10-10T05:46:49.419Z,291.00
2022-10-10T05:47:49.424Z,288.00
2022-10-10T05:48:49.380Z,272.00
2022-10-10T05:49:49.378Z,267.00
2022-10-10T05:50:49.372Z,263.00
2022-10-10T05:51:49.400Z,264.00
2022-10-10T05:52:49.731Z,264.00
2022-10-10T05:53:49.354Z,277.00
2022-10-10T05:54:49.312Z,270.00
2022-10-10T05:55:49.311Z,290.00
2022-10-10T05:56:49.294Z,303.00
2022-10-10T05:57:49.284Z,322.00
2022-10-10T05:58:49.246Z,338.00
2022-10-10T05:59:49.248Z,328.00
2022-10-10T06:00:49.240Z,326.00
2022-10-10T06:01:49.211Z,322.00
2022-10-10T06:02:49.642Z,324.00
2022-10-10T06:03:49.206Z,328.00
2022-10-10T06:04:49.195Z,323.00
2022-10-10T06:05:49.178Z,317.00
2022-10-10T06:06:49.179Z,313.00
2022-10-10T06:08:09.186Z,315.00
2022-10-10T06:08:49.126Z,315.00
2022-10-10T06:09:49.118Z,314.00
2022-10-10T06:10:49.102Z,317.00
2022-10-10T06:11:49.090Z,314.00
2022-10-10T06:12:49.434Z,313.00
2022-10-10T06:13:49.076Z,312.00
2022-10-10T06:14:49.054Z,311.00
2022-10-10T06:15:49.048Z,314.00
2022-10-10T06:16:49.013Z,319.00
2022-10-10T06:17:49.029Z,317.00
2022-10-10T06:18:49.003Z,319.00
2022-10-10T06:19:48.998Z,324.00
2022-10-10T06:20:48.988Z,327.00
2022-10-10T06:21:48.975Z,317.00
2022-10-10T06:22:49.251Z,311.00
2022-10-10T06:23:48.926Z,304.00
2022-10-10T06:24:52.906Z,288.00
2022-10-10T06:25:48.898Z,261.00
2022-10-10T06:26:48.882Z,260.00
2022-10-10T06:27:48.901Z,255.00
2022-10-10T06:28:48.914Z,266.00
2022-10-10T06:29:48.866Z,263.00
2022-10-10T06:30:48.834Z,266.00
2022-10-10T06:31:49.085Z,272.00
2022-10-10T06:32:50.845Z,275.00
2022-10-10T06:33:48.810Z,271.00
2022-10-10T06:34:48.785Z,261.00
2022-10-10T06:35:48.766Z,270.00
2022-10-10T06:36:48.767Z,279.00
2022-10-10T06:37:48.742Z,286.00
2022-10-10T06:38:48.740Z,273.00
2022-10-10T06:39:48.748Z,266.00
2022-10-10T06:40:48.715Z,265.00
2022-10-10T06:41:48.713Z,288.00
2022-10-10T06:42:48.986Z,302.00
2022-10-10T06:43:48.680Z,308.00
2022-10-10T06:44:48.671Z,307.00
2022-10-10T06:45:48.635Z,301.00
2022-10-10T06:46:48.652Z,287.00
2022-10-10T06:47:48.637Z,276.00
2022-10-10T06:48:48.620Z,270.00
2022-10-10T06:49:48.608Z,267.00
2022-10-10T06:50:48.569Z,264.00
2022-10-10T06:51:48.584Z,263.00
2022-10-10T06:52:48.899Z,260.00
2022-10-10T06:53:48.552Z,260.00
2022-10-10T06:54:48.517Z,258.00
2022-10-10T06:55:48.534Z,258.00
2022-10-10T06:56:48.514Z,256.00
2022-10-10T06:57:48.480Z,257.00
2022-10-10T06:58:48.471Z,256.00
2022-10-10T06:59:48.474Z,253.00
2022-10-10T07:00:48.435Z,254.00
2022-10-10T07:01:48.500Z,255.00
2022-10-10T07:02:48.731Z,255.00
2022-10-10T07:03:48.430Z,254.00
2022-10-10T07:04:48.400Z,253.00
2022-10-10T07:05:48.374Z,250.00
2022-10-10T07:06:48.364Z,251.00
2022-10-10T07:07:48.359Z,252.00
2022-10-10T07:08:48.329Z,252.00
2022-10-10T07:09:48.328Z,253.00
2022-10-10T07:10:48.313Z,252.00
2022-10-10T07:11:48.320Z,255.00
2022-10-10T07:12:48.302Z,257.00
2022-10-10T07:13:48.270Z,257.00
2022-10-10T07:14:48.303Z,256.00
2022-10-10T07:15:48.249Z,255.00
2022-10-10T07:16:48.227Z,254.00
2022-10-10T07:17:53.415Z,253.00
2022-10-10T07:18:48.207Z,255.00
2022-10-10T07:19:48.215Z,256.00
2022-10-10T07:20:48.205Z,258.00
2022-10-10T07:21:48.164Z,258.00
2022-10-10T07:22:48.360Z,258.00
2022-10-10T07:23:48.140Z,258.00
2022-10-10T07:24:48.144Z,265.00
2022-10-10T07:25:48.130Z,268.00
2022-10-10T07:26:48.137Z,268.00
2022-10-10T07:27:48.119Z,271.00
2022-10-10T07:28:48.112Z,276.00
2022-10-10T07:29:48.059Z,284.00
2022-10-10T07:30:48.072Z,285.00
2022-10-10T07:31:48.051Z,283.00
2022-10-10T07:32:48.300Z,281.00
2022-10-10T07:33:50.429Z,274.00
2022-10-10T07:34:47.987Z,267.00
2022-10-10T07:35:47.974Z,266.00
2022-10-10T07:36:47.965Z,260.00
2022-10-10T07:37:47.968Z,259.00
2022-10-10T07:38:47.956Z,256.00
2022-10-10T07:39:47.926Z,258.00
2022-10-10T07:40:47.919Z,256.00
2022-10-10T07:41:47.934Z,252.00
2022-10-10T07:42:48.005Z,250.00
2022-10-10T07:43:47.931Z,254.00
2022-10-10T07:44:47.918Z,254.00
2022-10-10T07:45:47.868Z,256.00
2022-10-10T07:46:47.864Z,258.00
2022-10-10T07:47:47.992Z,270.00
2022-10-10T07:48:47.826Z,306.00
2022-10-10T07:49:47.806Z,338.00
2022-10-10T07:50:47.795Z,358.00
2022-10-10T07:51:47.798Z,373.00
2022-10-10T07:52:47.748Z,390.00
2022-10-10T07:53:47.754Z,391.00
2022-10-10T07:54:47.773Z,391.00
2022-10-10T07:55:47.708Z,384.00
2022-10-10T07:56:47.720Z,379.00
2022-10-10T07:57:52.498Z,373.00
2022-10-10T07:58:47.688Z,352.00
2022-10-10T07:59:47.690Z,344.00
2022-10-10T08:00:47.664Z,344.00
2022-10-10T08:01:47.678Z,391.00
2022-10-10T08:02:47.624Z,320.00
2022-10-10T08:03:47.682Z,372.00
2022-10-10T08:04:47.663Z,357.00
2022-10-10T08:05:47.652Z,347.00
2022-10-10T08:06:47.649Z,312.00
2022-10-10T08:07:47.563Z,274.00
2022-10-10T08:08:51.386Z,266.00
2022-10-10T08:09:47.565Z,256.00
2022-10-10T08:10:47.536Z,273.00
2022-10-10T08:11:47.573Z,298.00
2022-10-10T08:12:47.531Z,328.00
2022-10-10T08:13:47.493Z,321.00
2022-10-10T08:14:47.513Z,285.00
2022-10-10T08:15:47.448Z,308.00
2022-10-10T08:16:47.476Z,339.00
2022-10-10T08:17:47.466Z,373.00
2022-10-10T08:18:47.426Z,378.00
2022-10-10T08:19:47.420Z,366.00
2022-10-10T08:20:47.409Z,359.00
2022-10-10T08:21:47.423Z,360.00
2022-10-10T08:22:47.364Z,300.00
2022-10-10T08:23:47.374Z,259.00
2022-10-10T08:24:47.350Z,251.00
2022-10-10T08:25:47.335Z,244.00
2022-10-10T08:26:47.321Z,245.00
2022-10-10T08:27:47.320Z,261.00
2022-10-10T08:28:47.387Z,285.00
2022-10-10T08:29:47.286Z,302.00
2022-10-10T08:30:47.274Z,284.00
2022-10-10T08:31:47.250Z,275.00
2022-10-10T08:32:47.237Z,276.00
2022-10-10T08:33:47.216Z,259.00
2022-10-10T08:34:47.281Z,250.00
2022-10-10T08:35:47.180Z,339.00
2022-10-10T08:36:47.171Z,302.00
2022-10-10T08:37:47.172Z,275.00
2022-10-10T08:38:47.165Z,255.00
2022-10-10T08:39:47.209Z,220.00
2022-10-10T08:40:47.155Z,225.00
2022-10-10T08:41:47.159Z,244.00
2022-10-10T08:42:52.527Z,262.00
2022-10-10T08:43:47.116Z,274.00
2022-10-10T08:44:47.108Z,280.00
2022-10-10T08:45:47.065Z,287.00
2022-10-10T08:46:47.060Z,291.00
2022-10-10T08:47:47.058Z,296.00
2022-10-10T08:48:47.036Z,296.00
2022-10-10T08:49:48.009Z,298.00
2022-10-10T08:50:47.039Z,299.00
2022-10-10T08:51:47.010Z,299.00
2022-10-10T08:52:47.020Z,298.00
2022-10-10T08:53:47.043Z,298.00
2022-10-10T08:54:47.063Z,293.00
2022-10-10T08:55:46.964Z,291.00
2022-10-10T08:56:46.950Z,292.00
2022-10-10T08:57:46.944Z,294.00
2022-10-10T08:58:46.987Z,293.00
2022-10-10T08:59:46.931Z,292.00
2022-10-10T09:00:46.948Z,291.00
2022-10-10T09:02:18.666Z,296.00
2022-10-10T09:02:54.629Z,296.00
2022-10-10T09:03:46.953Z,299.00
2022-10-10T09:04:46.848Z,299.00
2022-10-10T09:05:46.818Z,299.00
2022-10-10T09:06:46.799Z,301.00
2022-10-10T09:07:46.773Z,301.00
2022-10-10T09:08:46.751Z,301.00
2022-10-10T09:09:46.755Z,301.00
2022-10-10T09:10:46.724Z,299.00
2022-10-10T09:11:46.730Z,298.00
2022-10-10T09:12:46.723Z,297.00
2022-10-10T09:13:46.679Z,295.00
2022-10-10T09:14:46.688Z,294.00
2022-10-10T09:15:46.648Z,292.00
2022-10-10T09:16:46.700Z,292.00
2022-10-10T09:17:46.734Z,291.00
2022-10-10T09:18:46.652Z,291.00
2022-10-10T09:19:46.601Z,292.00
2022-10-10T09:20:46.588Z,292.00
2022-10-10T09:21:46.591Z,296.00
2022-10-10T09:22:46.641Z,294.00
2022-10-10T09:23:46.574Z,295.00
2022-10-10T09:24:46.535Z,295.00
2022-10-10T09:25:46.520Z,294.00
2022-10-10T09:26:46.511Z,293.00
2022-10-10T09:27:46.509Z,296.00
2022-10-10T09:28:46.562Z,297.00
2022-10-10T09:29:46.470Z,298.00
2022-10-10T09:30:46.459Z,298.00
2022-10-10T09:31:46.481Z,297.00
2022-10-10T09:32:46.442Z,295.00
2022-10-10T09:33:46.435Z,298.00
2022-10-10T09:34:46.417Z,295.00
2022-10-10T09:35:46.406Z,294.00
2022-10-10T09:36:46.402Z,296.00
2022-10-10T09:37:47.919Z,295.00
2022-10-10T09:38:46.374Z,294.00
2022-10-10T09:39:46.346Z,297.00
2022-10-10T09:40:46.349Z,299.00
2022-10-10T09:41:46.324Z,301.00
2022-10-10T09:42:46.323Z,300.00
2022-10-10T09:43:46.312Z,299.00
2022-10-10T09:44:46.323Z,299.00
2022-10-10T09:45:46.277Z,301.00
2022-10-10T09:46:46.262Z,304.00
2022-10-10T09:47:46.243Z,305.00
2022-10-10T09:48:46.222Z,303.00
2022-10-10T09:49:46.289Z,304.00
2022-10-10T09:50:46.213Z,305.00
2022-10-10T09:51:46.246Z,303.00
2022-10-10T09:52:46.208Z,304.00
2022-10-10T09:53:46.181Z,304.00
2022-10-10T09:54:46.145Z,302.00
2022-10-10T09:55:46.178Z,303.00
2022-10-10T09:56:46.137Z,301.00
2022-10-10T09:57:46.133Z,301.00
2022-10-10T09:58:46.138Z,303.00
2022-10-10T09:59:46.175Z,303.00
2022-10-10T10:00:46.139Z,305.00
2022-10-10T10:01:46.094Z,305.00
2022-10-10T10:02:46.042Z,305.00
2022-10-10T10:03:46.035Z,305.00
2022-10-10T10:04:46.032Z,306.00
2022-10-10T10:05:45.989Z,306.00
2022-10-10T10:06:45.982Z,302.00
2022-10-10T10:07:45.991Z,301.00
2022-10-10T10:08:49.856Z,300.00
2022-10-10T10:09:45.954Z,301.00
2022-10-10T10:10:45.937Z,298.00
2022-10-10T10:11:45.941Z,299.00
2022-10-10T10:12:45.915Z,299.00
2022-10-10T10:13:45.906Z,302.00
2022-10-10T10:14:45.889Z,301.00
2022-10-10T10:15:45.860Z,301.00
2022-10-10T10:16:45.851Z,301.00
2022-10-10T10:17:45.831Z,301.00
2022-10-10T10:18:45.850Z,301.00
2022-10-10T10:19:45.927Z,304.00
2022-10-10T10:20:45.798Z,304.00
2022-10-10T10:21:45.783Z,305.00
2022-10-10T10:22:45.855Z,305.00
2022-10-10T10:23:45.754Z,301.00
2022-10-10T10:24:45.749Z,301.00
2022-10-10T10:25:45.725Z,301.00
2022-10-10T10:26:45.750Z,301.00
2022-10-10T10:27:45.699Z,301.00
2022-10-10T10:28:45.789Z,304.00
2022-10-10T10:29:45.673Z,304.00
2022-10-10T10:30:45.672Z,306.00
2022-10-10T10:31:45.646Z,307.00
2022-10-10T10:32:45.662Z,309.00
2022-10-10T10:33:45.626Z,306.00
2022-10-10T10:34:45.628Z,303.00
2022-10-10T10:35:45.609Z,298.00
2022-10-10T10:36:45.606Z,299.00
2022-10-10T10:37:45.572Z,301.00
2022-10-10T10:38:45.559Z,301.00
2022-10-10T10:39:45.556Z,302.00
2022-10-10T10:40:45.537Z,296.00
2022-10-10T10:41:45.764Z,294.00
2022-10-10T10:42:45.547Z,297.00
2022-10-10T10:43:45.497Z,299.00
2022-10-10T10:44:45.482Z,297.00
2022-10-10T10:45:45.462Z,297.00
2022-10-10T10:46:45.474Z,298.00
2022-10-10T10:47:45.460Z,297.00
2022-10-10T10:48:45.448Z,293.00
2022-10-10T10:49:45.430Z,296.00
2022-10-10T10:50:45.425Z,299.00
2022-10-10T10:51:45.402Z,300.00
2022-10-10T10:52:45.394Z,300.00
2022-10-10T10:53:45.368Z,300.00
2022-10-10T10:54:45.653Z,297.00
2022-10-10T10:55:45.334Z,294.00
2022-10-10T10:56:45.352Z,294.00
2022-10-10T10:58:22.397Z,297.00
2022-10-10T11:00:32.995Z,295.00
2022-10-10T11:01:28.003Z,292.00
2022-10-10T11:01:56.041Z,292.00
2022-10-10T11:02:59.548Z,290.00
2022-10-10T11:05:19.393Z,293.00
2022-10-10T11:05:40.569Z,297.00
2022-10-10T11:05:46.223Z,297.00
2022-10-10T11:06:59.955Z,297.00
2022-10-10T11:07:45.259Z,298.00
2022-10-10T11:08:45.227Z,299.00
2022-10-10T11:09:50.109Z,301.00
2022-10-10T11:10:45.172Z,301.00
2022-10-10T11:11:45.120Z,300.00
2022-10-10T11:12:45.123Z,301.00
2022-10-10T11:13:45.112Z,302.00
2022-10-10T11:14:45.122Z,305.00
2022-10-10T11:16:05.481Z,306.00
2022-10-10T11:16:48.455Z,307.00
2022-10-10T11:17:45.043Z,306.00
2022-10-10T11:18:45.072Z,306.00
2022-10-10T11:19:45.037Z,306.00
2022-10-10T11:20:45.049Z,307.00
2022-10-10T11:21:44.998Z,308.00
2022-10-10T11:32:22.058Z,312.00
2022-10-10T11:32:27.707Z,307.00
2022-10-10T11:33:27.685Z,308.00
2022-10-10T11:34:27.702Z,311.00
2022-10-10T11:35:27.669Z,310.00
2022-10-10T11:36:27.653Z,311.00
2022-10-10T11:37:27.621Z,313.00
2022-10-10T11:38:27.645Z,317.00
2022-10-10T11:39:27.584Z,317.00
2022-10-10T11:40:27.578Z,317.00
2022-10-10T11:41:27.563Z,316.00
2022-10-10T11:42:27.564Z,313.00
2022-10-10T11:43:27.562Z,309.00
2022-10-10T11:44:27.517Z,309.00
2022-10-10T11:45:27.523Z,311.00
2022-10-10T11:46:27.522Z,313.00
2022-10-10T11:47:27.475Z,314.00
2022-10-10T11:48:27.505Z,314.00
2022-10-10T11:49:27.449Z,314.00
2022-10-10T11:50:27.485Z,314.00
2022-10-10T11:51:27.441Z,315.00
2022-10-10T11:52:35.127Z,315.00
2022-10-10T11:53:27.407Z,311.00
2022-10-10T11:54:27.397Z,312.00
2022-10-10T11:55:27.379Z,313.00
2022-10-10T11:56:27.401Z,312.00
2022-10-10T11:57:27.370Z,311.00
2022-10-10T11:58:27.338Z,312.00
2022-10-10T11:59:27.345Z,319.00
2022-10-10T12:00:27.330Z,317.00
2022-10-10T12:01:27.295Z,316.00
2022-10-10T12:02:28.131Z,316.00
2022-10-10T12:03:27.301Z,313.00
2022-10-10T12:04:27.271Z,314.00
2022-10-10T12:05:27.246Z,312.00
2022-10-10T12:06:27.260Z,310.00
2022-10-10T12:07:27.241Z,308.00
2022-10-10T12:08:27.215Z,305.00
2022-10-10T12:09:27.217Z,305.00
2022-10-10T12:10:27.218Z,305.00
2022-10-10T12:11:27.201Z,307.00
2022-10-10T12:12:27.284Z,309.00
2022-10-10T12:13:27.183Z,309.00
2022-10-10T12:14:27.141Z,309.00
2022-10-10T12:15:27.136Z,309.00
2022-10-10T12:16:30.570Z,310.00
2022-10-10T12:17:27.118Z,310.00
2022-10-10T12:18:27.094Z,308.00
2022-10-10T12:19:27.067Z,305.00
2022-10-10T12:20:27.059Z,305.00
2022-10-10T12:21:27.069Z,305.00
2022-10-10T12:22:27.040Z,304.00
2022-10-10T12:23:27.052Z,303.00
2022-10-10T12:24:27.037Z,304.00
2022-10-10T12:25:27.020Z,305.00
2022-10-10T12:26:26.994Z,305.00
2022-10-10T12:27:26.999Z,305.00
2022-10-10T12:28:27.053Z,306.00
2022-10-10T12:29:26.957Z,306.00
2022-10-10T12:30:26.953Z,306.00
2022-10-10T12:31:26.977Z,306.00
2022-10-10T12:32:26.915Z,305.00
2022-10-10T12:33:26.921Z,303.00
2022-10-10T12:34:26.886Z,302.00
2022-10-10T12:35:26.887Z,305.00
2022-10-10T12:36:26.880Z,306.00
2022-10-10T12:37:26.850Z,305.00
2022-10-10T12:38:26.943Z,306.00